Time;durP1;ratioP1;P1;durP2;ratioP2;P2;SDS_P1;SDS_P2;PMS_P1;PMS_P2;Temp;Humidity;BMP_temperature;BMP_pressure;BME280_temperature;BME280_humidity;BME280_pressure;Samples;Min_cycle;Max_cycle;Signal;HPM_P1;HPM_P2
2023/06/29 00:02:12;;;;;;;1.23;1.23;;;14.80;99.90;;;;;;5073322;28;20404;-72
2023/06/29 00:04:37;;;;;;;0.67;0.67;;;14.70;99.90;;;;;;5073554;28;20197;-70
2023/06/29 00:07:03;;;;;;;4.23;1.67;;;14.70;99.90;;;;;;5073037;28;20226;-71
2023/06/29 00:09:29;;;;;;;1.10;1.10;;;14.70;99.90;;;;;;5073325;28;20185;-72
2023/06/29 00:11:55;;;;;;;1.27;1.27;;;14.60;99.90;;;;;;5073253;28;20976;-72
2023/06/29 00:14:20;;;;;;;1.83;1.30;;;14.50;99.90;;;;;;5073406;28;20754;-73
2023/06/29 00:16:50;;;;;;;2.30;2.10;;;14.60;99.90;;;;;;5073368;28;20509;-72
2023/06/29 00:19:16;;;;;;;1.10;1.10;;;14.60;99.90;;;;;;5073506;28;20189;-72
2023/06/29 00:21:42;;;;;;;1.33;1.27;;;14.50;99.90;;;;;;5073252;28;20411;-71
2023/06/29 00:24:11;;;;;;;1.03;1.03;;;14.50;99.90;;;;;;5073474;28;20838;-72
2023/06/29 00:26:38;;;;;;;1.57;1.57;;;14.60;99.90;;;;;;5073219;28;20411;-72
2023/06/29 00:29:04;;;;;;;0.60;0.60;;;14.50;99.90;;;;;;5073175;28;20779;-72
2023/06/29 00:31:29;;;;;;;0.93;0.80;;;14.50;99.90;;;;;;5073054;28;20413;-71
2023/06/29 00:33:55;;;;;;;1.17;1.17;;;14.40;99.90;;;;;;5073309;28;20491;-71
2023/06/29 00:36:21;;;;;;;1.90;1.80;;;14.30;99.90;;;;;;5073746;28;20182;-71
2023/06/29 00:38:46;;;;;;;1.00;1.00;;;14.40;99.90;;;;;;5073284;28;20185;-70
2023/06/29 00:41:12;;;;;;;1.00;1.00;;;14.40;99.90;;;;;;5072948;28;20174;-70
2023/06/29 00:43:37;;;;;;;1.33;0.70;;;14.50;99.90;;;;;;5073288;28;20742;-72
2023/06/29 00:46:07;;;;;;;3.03;1.43;;;14.40;99.90;;;;;;5073130;28;20173;-72
2023/06/29 00:48:35;;;;;;;1.27;1.10;;;14.50;99.90;;;;;;5073128;28;20186;-71
2023/06/29 00:51:03;;;;;;;4.63;1.10;;;14.60;99.90;;;;;;5072752;28;20907;-71
2023/06/29 00:53:29;;;;;;;0.70;0.67;;;14.60;99.90;;;;;;5072896;28;20404;-71
2023/06/29 00:55:55;;;;;;;0.90;0.90;;;14.60;99.90;;;;;;5073237;28;20884;-72
2023/06/29 00:58:21;;;;;;;0.90;0.90;;;14.70;99.90;;;;;;5072960;28;20423;-70
2023/06/29 01:00:46;;;;;;;0.73;0.63;;;14.50;99.90;;;;;;5072967;28;20451;-72
2023/06/29 01:03:13;;;;;;;0.70;0.70;;;14.40;99.90;;;;;;5072799;28;20205;-71
2023/06/29 01:05:39;;;;;;;0.83;0.83;;;14.30;99.90;;;;;;5072852;28;20169;-73
2023/06/29 01:08:13;;;;;;;0.90;0.90;;;14.20;99.90;;;;;;5072856;28;20455;-72
2023/06/29 01:10:39;;;;;;;0.80;0.80;;;14.20;99.90;;;;;;5073094;28;20229;-70
2023/06/29 01:13:07;;;;;;;0.77;0.70;;;14.20;99.90;;;;;;5072740;28;20405;-69
2023/06/29 01:15:34;;;;;;;0.77;0.77;;;14.20;99.90;;;;;;5072830;28;20453;-71
2023/06/29 01:18:03;;;;;;;1.37;1.27;;;14.30;99.90;;;;;;5072721;28;20491;-71
2023/06/29 01:20:33;;;;;;;1.30;1.30;;;14.30;99.90;;;;;;5075971;28;20412;-71
2023/06/29 01:23:06;;;;;;;0.70;0.70;;;14.40;99.90;;;;;;5076323;28;20404;-72
2023/06/29 01:25:32;;;;;;;1.87;1.43;;;14.40;99.90;;;;;;5076598;28;20396;-71
2023/06/29 01:27:58;;;;;;;1.13;0.73;;;14.30;99.90;;;;;;5076445;28;20399;-71
2023/06/29 01:30:24;;;;;;;0.57;0.57;;;14.40;99.90;;;;;;5076234;28;20419;-71
2023/06/29 01:32:50;;;;;;;1.60;0.90;;;14.40;99.90;;;;;;5076115;28;20400;-71
2023/06/29 01:35:16;;;;;;;1.53;1.43;;;14.30;99.90;;;;;;5076396;28;20178;-72
2023/06/29 01:37:52;;;;;;;2.63;0.90;;;14.20;99.90;;;;;;5076169;28;20413;-72
2023/06/29 01:40:24;;;;;;;0.60;0.60;;;14.20;99.90;;;;;;5076246;28;20566;-71
2023/06/29 01:42:52;;;;;;;2.50;1.23;;;14.10;99.90;;;;;;5076129;28;20457;-72
2023/06/29 01:45:20;;;;;;;1.73;1.63;;;14.10;99.90;;;;;;5076161;28;20479;-71
2023/06/29 01:47:46;;;;;;;1.70;1.60;;;14.10;99.90;;;;;;5076011;28;20408;-70
2023/06/29 01:50:12;;;;;;;0.60;0.60;;;14.10;99.90;;;;;;5075774;28;20436;-71
2023/06/29 01:52:38;;;;;;;1.30;1.20;;;14.20;99.90;;;;;;5075853;28;20663;-72
2023/06/29 01:55:04;;;;;;;1.90;1.63;;;14.40;99.90;;;;;;5076089;28;20408;-69
2023/06/29 01:57:30;;;;;;;1.73;1.03;;;14.40;99.90;;;;;;5075883;28;20495;-72
2023/06/29 01:59:56;;;;;;;1.13;1.03;;;14.30;99.90;;;;;;5075767;28;20454;-70
2023/06/29 02:02:22;;;;;;;2.20;2.03;;;;;;;;;;5075461;28;20177;-70
2023/06/29 02:04:47;;;;;;;0.60;0.60;;;14.10;99.90;;;;;;5075658;28;20672;-72
2023/06/29 02:07:13;;;;;;;1.47;1.43;;;14.20;99.90;;;;;;5075621;28;20408;-71
2023/06/29 02:09:39;;;;;;;1.17;1.07;;;14.30;99.90;;;;;;5075547;28;20190;-70
2023/06/29 02:12:05;;;;;;;0.87;0.87;;;14.20;99.90;;;;;;5075439;28;20254;-70
2023/06/29 02:14:31;;;;;;;0.93;0.93;;;14.20;99.90;;;;;;5075763;28;20200;-72
2023/06/29 02:16:56;;;;;;;1.30;0.63;;;;;;;;;;5075462;28;20408;-71
2023/06/29 02:19:22;;;;;;;1.40;1.23;;;14.20;99.90;;;;;;5075394;28;20193;-70
2023/06/29 02:21:48;;;;;;;1.63;1.53;;;14.30;99.90;;;;;;5075443;28;20915;-70
2023/06/29 02:24:13;;;;;;;1.33;1.13;;;14.40;99.90;;;;;;5075400;28;20295;-73
2023/06/29 02:26:39;;;;;;;0.90;0.90;;;14.30;99.90;;;;;;5075408;28;20231;-70
2023/06/29 02:29:05;;;;;;;1.30;1.20;;;14.30;99.90;;;;;;5075310;28;20185;-71
2023/06/29 02:31:31;;;;;;;1.17;0.60;;;;;;;;;;5074034;28;20176;-72
2023/06/29 02:33:56;;;;;;;0.90;0.90;;;14.40;99.90;;;;;;5075220;28;20248;-71
2023/06/29 02:36:22;;;;;;;0.77;0.77;;;14.50;99.90;;;;;;5075173;28;20445;-70
2023/06/29 02:38:48;;;;;;;1.07;0.77;;;14.60;99.90;;;;;;5075095;28;20236;-70
2023/06/29 02:41:14;;;;;;;0.90;0.60;;;14.60;99.90;;;;;;5074874;28;20181;-70
2023/06/29 02:43:40;;;;;;;0.70;0.70;;;14.60;99.90;;;;;;5075101;28;20454;-71
2023/06/29 02:46:06;;;;;;;1.97;1.00;;;14.60;99.90;;;;;;5074952;28;20413;-72
2023/06/29 02:48:31;;;;;;;0.87;0.87;;;14.60;99.90;;;;;;5074855;28;20197;-71
2023/06/29 02:50:57;;;;;;;1.30;1.20;;;14.70;99.90;;;;;;5074549;28;20192;-73
2023/06/29 02:53:23;;;;;;;1.10;1.10;;;14.80;99.90;;;;;;5074879;28;20179;-70
2023/06/29 02:55:48;;;;;;;1.27;1.20;;;14.70;99.90;;;;;;5074923;28;20426;-71
2023/06/29 02:58:14;;;;;;;1.90;1.33;;;15.10;99.90;;;;;;5073514;28;20185;-70
2023/06/29 03:00:40;;;;;;;1.43;1.33;;;14.80;99.90;;;;;;5074584;28;20265;-69
2023/06/29 03:03:05;;;;;;;1.80;1.57;;;14.80;99.90;;;;;;5074334;28;20371;-71
2023/06/29 03:05:31;;;;;;;2.20;2.10;;;14.80;99.90;;;;;;5074543;28;20172;-71
2023/06/29 03:07:56;;;;;;;1.43;1.33;;;14.80;99.90;;;;;;5074522;28;20173;-71
2023/06/29 03:10:22;;;;;;;1.30;1.20;;;14.90;99.90;;;;;;5074493;28;20679;-72
2023/06/29 03:12:48;;;;;;;1.23;1.10;;;14.90;99.90;;;;;;5074215;28;20658;-71
2023/06/29 03:15:13;;;;;;;0.60;0.60;;;14.90;99.90;;;;;;5074459;28;20181;-70
2023/06/29 03:17:39;;;;;;;1.23;1.13;;;14.80;99.90;;;;;;5074680;28;20250;-72
2023/06/29 03:20:06;;;;;;;0.70;0.70;;;14.80;99.90;;;;;;5074225;28;20283;-71
2023/06/29 03:22:32;;;;;;;0.80;0.80;;;14.90;99.90;;;;;;5073448;28;20257;-72
2023/06/29 03:24:58;;;;;;;1.80;1.30;;;14.80;99.90;;;;;;5074193;28;20553;-70
2023/06/29 03:27:24;;;;;;;2.10;1.70;;;14.80;99.90;;;;;;5074085;28;20439;-72
2023/06/29 03:29:51;;;;;;;1.30;1.27;;;14.80;99.90;;;;;;5073996;28;20216;-72
2023/06/29 03:32:17;;;;;;;1.07;0.87;;;14.70;99.90;;;;;;5073980;28;20173;-73
2023/06/29 03:34:43;;;;;;;1.47;1.40;;;14.70;99.90;;;;;;5074059;28;20411;-70
2023/06/29 03:37:08;;;;;;;0.97;0.97;;;14.70;99.90;;;;;;5073974;28;20599;-71
2023/06/29 03:39:34;;;;;;;0.70;0.70;;;14.70;99.90;;;;;;5074032;28;20197;-72
2023/06/29 03:41:59;;;;;;;1.63;1.53;;;14.60;99.90;;;;;;5073774;28;20180;-71
2023/06/29 03:44:25;;;;;;;1.20;1.20;;;14.70;99.90;;;;;;5073957;28;20588;-71
2023/06/29 03:46:51;;;;;;;1.10;1.10;;;14.70;99.90;;;;;;5073973;28;20188;-71
2023/06/29 03:49:17;;;;;;;0.80;0.80;;;14.70;99.90;;;;;;5073817;28;20191;-71
2023/06/29 03:51:43;;;;;;;1.20;1.10;;;14.60;99.90;;;;;;5073352;28;20474;-71
2023/06/29 03:54:08;;;;;;;1.00;1.00;;;14.70;99.90;;;;;;5072409;28;20181;-70
2023/06/29 03:56:34;;;;;;;1.00;1.00;;;14.60;99.90;;;;;;5073773;28;20178;-72
2023/06/29 03:59:00;;;;;;;1.63;1.53;;;14.70;99.90;;;;;;5073843;28;20242;-71
2023/06/29 04:01:25;;;;;;;1.33;1.33;;;14.70;99.90;;;;;;5073326;28;20173;-72
2023/06/29 04:03:51;;;;;;;0.93;0.93;;;14.80;99.90;;;;;;5073501;28;20197;-70
2023/06/29 04:06:17;;;;;;;1.37;1.27;;;14.80;99.90;;;;;;5073537;28;20690;-70
2023/06/29 04:08:42;;;;;;;1.10;1.00;;;15.00;99.90;;;;;;5073483;28;20195;-72
2023/06/29 04:11:09;;;;;;;0.93;0.93;;;15.10;99.90;;;;;;5073497;28;20233;-72
2023/06/29 04:13:35;;;;;;;0.77;0.77;;;15.20;99.90;;;;;;5073470;28;20165;-71
2023/06/29 04:16:01;;;;;;;0.40;0.40;;;15.30;99.90;;;;;;5073334;28;20808;-71
2023/06/29 04:18:26;;;;;;;0.60;0.60;;;15.20;99.90;;;;;;5073580;28;20411;-72
2023/06/29 04:20:53;;;;;;;3.67;1.93;;;15.40;99.90;;;;;;5073479;28;20632;-72
2023/06/29 04:23:19;;;;;;;1.23;1.20;;;15.60;99.90;;;;;;5073112;28;20177;-71
2023/06/29 04:25:45;;;;;;;2.30;2.10;;;15.70;99.90;;;;;;5073294;28;20498;-72
2023/06/29 04:28:13;;;;;;;1.00;0.90;;;15.80;99.90;;;;;;5073305;28;20415;-70
2023/06/29 04:30:40;;;;;;;2.20;2.00;;;15.90;99.90;;;;;;5073318;28;20184;-70
2023/06/29 04:33:09;;;;;;;0.97;0.97;;;16.20;99.90;;;;;;5073214;28;20845;-70
2023/06/29 04:35:44;;;;;;;0.60;0.60;;;16.50;99.50;;;;;;5073399;28;20404;-72
2023/06/29 04:38:12;;;;;;;0.63;0.63;;;16.80;99.30;;;;;;5073546;28;20395;-71
2023/06/29 04:40:38;;;;;;;1.27;1.17;;;17.20;99.00;;;;;;5073142;28;20416;-73
2023/06/29 04:43:06;;;;;;;1.23;0.97;;;17.60;98.20;;;;;;5072908;28;20450;-72
2023/06/29 04:45:32;;;;;;;0.80;0.80;;;17.90;97.80;;;;;;5073347;28;20733;-71
2023/06/29 04:47:59;;;;;;;1.03;1.03;;;18.20;97.20;;;;;;5073239;28;20405;-70
2023/06/29 04:50:25;;;;;;;0.83;0.83;;;18.20;97.00;;;;;;5072983;28;20511;-72
2023/06/29 04:52:55;;;;;;;1.53;1.43;;;18.30;96.40;;;;;;5072857;28;20501;-71
2023/06/29 04:55:22;;;;;;;1.97;1.23;;;18.40;96.30;;;;;;5076513;28;20408;-70
2023/06/29 04:57:48;;;;;;;0.60;0.60;;;18.50;96.40;;;;;;5077143;28;20406;-71
2023/06/29 05:00:14;;;;;;;0.83;0.80;;;18.80;95.90;;;;;;5076863;28;20431;-72
2023/06/29 05:02:41;;;;;;;0.83;0.83;;;18.90;95.80;;;;;;5076750;28;20414;-72
2023/06/29 05:05:07;;;;;;;0.83;0.83;;;19.00;95.20;;;;;;5077024;28;20447;-70
2023/06/29 05:07:34;;;;;;;1.40;1.30;;;19.10;95.20;;;;;;5076829;28;20486;-71
2023/06/29 05:09:59;;;;;;;1.00;0.90;;;19.30;95.10;;;;;;5076844;28;20481;-72
2023/06/29 05:12:25;;;;;;;0.50;0.50;;;19.40;94.00;;;;;;5076579;28;20408;-73
2023/06/29 05:14:51;;;;;;;1.10;0.70;;;19.70;94.20;;;;;;5076752;28;20608;-72
2023/06/29 05:17:19;;;;;;;2.97;1.23;;;19.90;93.60;;;;;;5076772;28;20408;-72
2023/06/29 05:19:45;;;;;;;0.70;0.60;;;20.10;93.00;;;;;;5076672;28;20328;-71
2023/06/29 05:22:11;;;;;;;0.40;0.40;;;20.30;92.60;;;;;;5076398;28;20437;-72
2023/06/29 05:24:37;;;;;;;1.07;0.77;;;20.30;92.50;;;;;;5076446;28;20535;-72
2023/06/29 05:27:04;;;;;;;0.90;0.90;;;20.20;92.00;;;;;;5076486;28;20174;-71
2023/06/29 05:29:29;;;;;;;0.97;0.80;;;20.00;91.80;;;;;;5076237;28;20432;-72
2023/06/29 05:31:55;;;;;;;1.80;1.57;;;19.90;92.20;;;;;;5076251;28;20922;-69
2023/06/29 05:34:21;;;;;;;1.70;0.70;;;19.80;93.50;;;;;;5076471;28;20777;-71
2023/06/29 05:36:46;;;;;;;0.70;0.70;;;19.80;92.80;;;;;;5076291;28;20174;-71
2023/06/29 05:39:12;;;;;;;4.50;2.20;;;19.80;93.40;;;;;;5076060;28;20201;-72
2023/06/29 05:41:38;;;;;;;2.30;0.80;;;19.90;93.70;;;;;;5076063;28;20179;-70
2023/06/29 05:44:06;;;;;;;1.40;1.30;;;19.90;93.80;;;;;;5076158;28;20205;-70
2023/06/29 05:46:33;;;;;;;2.60;1.50;;;20.00;94.00;;;;;;5075990;28;20181;-70
2023/06/29 05:48:59;;;;;;;1.00;1.00;;;20.10;94.40;;;;;;5075977;28;20437;-71
2023/06/29 05:51:25;;;;;;;0.80;0.80;;;20.20;94.50;;;;;;5075611;28;20429;-70
2023/06/29 05:53:50;;;;;;;2.20;0.90;;;20.30;94.40;;;;;;5076254;28;20412;-72
2023/06/29 05:56:16;;;;;;;1.00;0.90;;;20.30;93.60;;;;;;5075948;28;20177;-71
2023/06/29 05:58:42;;;;;;;0.90;0.90;;;20.20;93.80;;;;;;5075924;28;20685;-71
2023/06/29 06:01:07;;;;;;;0.80;0.80;;;20.50;94.20;;;;;;5075523;28;20180;-71
2023/06/29 06:03:33;;;;;;;0.93;0.93;;;20.70;94.00;;;;;;5075561;28;20201;-72
2023/06/29 06:05:59;;;;;;;0.93;0.90;;;20.90;93.60;;;;;;5074533;28;20213;-72
2023/06/29 06:08:24;;;;;;;1.43;1.23;;;21.00;99.90;;;;;;5075743;28;20172;-72
2023/06/29 06:10:50;;;;;;;1.30;1.20;;;21.10;93.20;;;;;;5075932;28;20175;-73
2023/06/29 06:13:16;;;;;;;0.70;0.70;;;21.30;93.00;;;;;;5075543;28;20164;-72
2023/06/29 06:15:42;;;;;;;1.27;1.27;;;21.30;93.40;;;;;;5075539;28;20421;-73
2023/06/29 06:18:07;;;;;;;3.50;1.17;;;21.30;93.80;;;;;;5075687;28;20176;-72
2023/06/29 06:20:33;;;;;;;0.80;0.80;;;21.30;92.80;;;;;;5075574;28;20199;-72
2023/06/29 06:22:59;;;;;;;1.10;0.80;;;21.30;93.00;;;;;;5075163;28;20188;-72
2023/06/29 06:25:24;;;;;;;1.43;0.90;;;21.30;93.60;;;;;;5075514;28;20225;-73
2023/06/29 06:27:50;;;;;;;1.47;1.37;;;21.50;93.40;;;;;;5075351;28;20535;-72
2023/06/29 06:30:16;;;;;;;0.83;0.83;;;22.10;93.70;;;;;;5075345;28;20197;-72
2023/06/29 06:32:42;;;;;;;1.20;1.17;;;23.60;92.30;;;;;;5075137;28;20420;-71
2023/06/29 06:35:09;;;;;;;0.80;0.60;;;25.20;88.10;;;;;;5075213;28;20173;-74
2023/06/29 06:37:38;;;;;;;0.70;0.70;;;26.60;84.30;;;;;;5075299;28;20185;-71
2023/06/29 06:40:07;;;;;;;0.80;0.80;;;28.50;77.50;;;;;;5074983;28;20493;-71
2023/06/29 06:42:35;;;;;;;1.23;1.23;;;30.50;71.30;;;;;;5074954;28;20466;-70
2023/06/29 06:45:05;;;;;;;0.80;0.80;;;32.20;62.20;;;;;;5074937;28;20462;-71
2023/06/29 06:47:31;;;;;;;0.90;0.60;;;33.40;56.80;;;;;;5075056;28;20400;-70
2023/06/29 06:49:58;;;;;;;0.97;0.93;;;34.40;53.40;;;;;;5074703;28;20549;-69
2023/06/29 06:52:23;;;;;;;1.23;0.90;;;35.20;51.40;;;;;;5074730;28;20435;-70
2023/06/29 06:54:50;;;;;;;0.63;0.63;;;35.50;48.40;;;;;;5074952;28;20454;-69
2023/06/29 06:57:16;;;;;;;0.90;0.90;;;35.00;47.20;;;;;;5074749;28;20204;-70
2023/06/29 06:59:42;;;;;;;0.60;0.60;;;34.80;47.10;;;;;;5074683;28;20439;-70
2023/06/29 07:02:08;;;;;;;1.40;1.20;;;34.30;44.90;;;;;;5074770;28;20404;-71
2023/06/29 07:04:33;;;;;;;0.83;0.80;;;33.70;45.60;;;;;;5074693;28;20209;-70
2023/06/29 07:06:59;;;;;;;1.27;1.10;;;32.80;46.60;;;;;;5074732;28;20173;-72
2023/06/29 07:09:25;;;;;;;1.63;1.17;;;31.90;49.60;;;;;;5074503;28;20194;-69
2023/06/29 07:11:50;;;;;;;2.03;0.80;;;31.20;50.70;;;;;;5074250;28;20169;-71
2023/06/29 07:14:16;;;;;;;0.90;0.90;;;30.80;51.60;;;;;;5074496;28;20591;-71
2023/06/29 07:16:42;;;;;;;0.77;0.77;;;30.80;51.80;;;;;;5073945;28;20169;-72
2023/06/29 07:19:12;;;;;;;1.60;0.80;;;31.20;52.10;;;;;;5074436;28;20439;-71
2023/06/29 07:21:38;;;;;;;0.90;0.73;;;31.90;50.80;;;;;;5074253;28;20198;-71
2023/06/29 07:24:04;;;;;;;2.63;1.07;;;32.60;49.20;;;;;;5074305;28;20451;-69
2023/06/29 07:26:30;;;;;;;0.93;0.80;;;32.80;47.40;;;;;;5074453;28;20814;-69
2023/06/29 07:28:56;;;;;;;1.83;0.80;;;32.50;47.20;;;;;;5074038;28;20438;-71
2023/06/29 07:31:25;;;;;;;0.60;0.60;;;32.20;47.10;;;;;;5074071;28;20173;-71
2023/06/29 07:33:55;;;;;;;1.03;0.70;;;31.90;47.40;;;;;;5074072;28;20173;-71
2023/06/29 07:36:22;;;;;;;0.60;0.60;;;31.30;45.20;;;;;;5074254;28;20477;-69
2023/06/29 07:38:48;;;;;;;1.73;1.50;;;31.20;45.60;;;;;;5074180;28;20427;-72
2023/06/29 07:41:15;;;;;;;0.97;0.70;;;31.60;43.10;;;;;;5073682;28;20408;-71
2023/06/29 07:43:42;;;;;;;0.80;0.80;;;31.80;44.30;;;;;;5073715;28;20987;-69
2023/06/29 07:46:07;;;;;;;0.70;0.70;;;31.60;43.30;;;;;;5074138;28;20765;-72
2023/06/29 07:48:33;;;;;;;0.70;0.70;;;31.30;44.50;;;;;;5073618;28;20423;-70
2023/06/29 07:50:59;;;;;;;0.90;0.63;;;31.50;43.80;;;;;;5073424;28;20189;-71
2023/06/29 07:53:26;;;;;;;0.97;0.93;;;32.50;44.70;;;;;;5073611;28;20205;-72
2023/06/29 07:55:51;;;;;;;0.70;0.60;;;33.40;41.50;;;;;;5073758;28;20944;-72
2023/06/29 07:58:17;;;;;;;0.50;0.50;;;35.50;48.00;;;;;;5073462;28;20173;-69
2023/06/29 08:00:43;;;;;;;0.80;0.70;;;35.60;38.10;;;;;;5073566;28;20170;-70
2023/06/29 08:03:09;;;;;;;1.67;0.80;;;36.60;37.50;;;;;;5073323;28;20403;-71
2023/06/29 08:05:34;;;;;;;0.80;0.80;;;37.10;35.00;;;;;;5073616;28;20252;-70
2023/06/29 08:08:00;;;;;;;0.80;0.60;;;37.70;34.50;;;;;;5073632;28;20637;-70
2023/06/29 08:10:25;;;;;;;0.90;0.70;;;38.40;34.30;;;;;;5073639;28;20189;-70
2023/06/29 08:12:52;;;;;;;1.40;0.80;;;38.50;35.30;;;;;;5073280;28;20167;-70
2023/06/29 08:15:17;;;;;;;0.90;0.70;;;39.30;33.60;;;;;;5073675;28;20206;-72
2023/06/29 08:17:43;;;;;;;0.80;0.80;;;40.00;31.40;;;;;;5073712;28;20487;-71
2023/06/29 08:20:12;;;;;;;0.90;0.60;;;40.10;30.20;;;;;;5073504;28;20276;-71
2023/06/29 08:22:38;;;;;;;0.93;0.70;;;40.50;30.30;;;;;;5073176;28;20208;-70
2023/06/29 08:25:04;;;;;;;0.70;0.70;;;40.50;29.50;;;;;;5073412;28;20437;-71
2023/06/29 08:27:30;;;;;;;0.70;0.60;;;40.60;30.00;;;;;;5073489;28;20411;-71
2023/06/29 08:29:55;;;;;;;0.73;0.73;;;40.90;30.50;;;;;;5072322;28;20431;-72
2023/06/29 08:32:21;;;;;;;0.83;0.83;;;41.20;29.00;;;;;;5073052;28;20252;-70
2023/06/29 08:34:47;;;;;;;0.80;0.80;;;41.40;31.20;;;;;;5073408;28;20208;-71
2023/06/29 08:37:12;;;;;;;1.10;1.00;;;41.70;30.40;;;;;;5073165;28;20169;-71
2023/06/29 08:39:38;;;;;;;1.07;0.63;;;42.00;28.50;;;;;;5073339;28;20208;-71
2023/06/29 08:42:04;;;;;;;2.37;1.27;;;41.50;28.60;;;;;;5073021;28;20169;-72
2023/06/29 08:44:30;;;;;;;0.90;0.90;;;41.00;29.60;;;;;;5073261;28;20182;-72
2023/06/29 08:47:00;;;;;;;0.73;0.73;;;40.40;28.80;;;;;;5073215;28;20248;-70
2023/06/29 08:49:27;;;;;;;0.80;0.80;;;39.60;30.80;;;;;;5073103;28;20696;-69
2023/06/29 08:51:58;;;;;;;1.17;0.90;;;38.80;30.60;;;;;;5072995;28;20411;-70
2023/06/29 08:54:29;;;;;;;2.10;1.00;;;38.90;33.50;;;;;;5073192;28;20524;-72
2023/06/29 08:56:55;;;;;;;0.73;0.70;;;39.40;32.00;;;;;;5073453;28;20414;-73
2023/06/29 08:59:22;;;;;;;1.20;1.00;;;39.70;31.50;;;;;;5072913;28;20419;-72
2023/06/29 09:01:48;;;;;;;1.40;1.30;;;39.70;29.90;;;;;;5072804;28;20436;-72
2023/06/29 09:04:14;;;;;;;1.23;1.13;;;39.30;30.10;;;;;;5073191;28;20400;-72
2023/06/29 09:06:43;;;;;;;1.70;1.30;;;38.80;30.30;;;;;;5072967;28;20407;-73
2023/06/29 09:09:09;;;;;;;2.30;1.17;;;38.90;31.10;;;;;;5072809;28;20431;-72
2023/06/29 09:11:35;;;;;;;2.07;1.50;;;39.20;32.50;;;;;;5071695;28;20770;-70
2023/06/29 09:14:06;;;;;;;2.40;1.60;;;40.00;29.90;;;;;;5072830;28;20857;-72
2023/06/29 09:16:34;;;;;;;2.60;2.20;;;40.70;29.70;;;;;;5072930;28;20408;-73
2023/06/29 09:19:00;;;;;;;2.03;1.83;;;40.20;28.80;;;;;;5072984;28;20435;-72
2023/06/29 09:21:28;;;;;;;2.23;2.00;;;38.50;29.60;;;;;;5072578;28;20418;-72
2023/06/29 09:24:00;;;;;;;2.10;1.80;;;37.00;32.50;;;;;;5072997;28;20895;-72
2023/06/29 09:26:28;;;;;;;2.33;2.13;;;35.50;32.60;;;;;;5072812;28;20415;-71
2023/06/29 09:29:03;;;;;;;5.13;1.60;;;34.50;34.00;;;;;;5072685;28;20431;-70
2023/06/29 09:31:35;;;;;;;2.10;1.53;;;33.80;36.70;;;;;;5072707;28;20411;-70
2023/06/29 09:34:17;;;;;;;1.83;1.20;;;33.40;37.00;;;;;;5072766;28;20439;-71
2023/06/29 09:36:44;;;;;;;1.37;1.27;;;33.00;36.40;;;;;;5071451;28;20954;-72
2023/06/29 09:39:10;;;;;;;1.93;1.60;;;33.10;39.70;;;;;;5072733;28;20424;-72
2023/06/29 09:41:48;;;;;;;0.97;0.73;;;33.40;38.50;;;;;;5075789;28;20403;-72
2023/06/29 09:44:21;;;;;;;1.10;0.80;;;32.80;40.30;;;;;;5076329;28;20408;-72
2023/06/29 09:46:50;;;;;;;0.73;0.73;;;33.30;41.50;;;;;;5076205;28;20879;-69
2023/06/29 09:49:18;;;;;;;1.00;0.90;;;34.30;40.00;;;;;;5076017;28;20436;-73
2023/06/29 09:51:44;;;;;;;0.60;0.60;;;35.30;39.50;;;;;;5075779;28;20846;-71
2023/06/29 09:54:13;;;;;;;1.30;1.20;;;35.80;40.50;;;;;;5076054;28;20479;-71
2023/06/29 09:56:40;;;;;;;1.13;0.90;;;36.10;39.90;;;;;;5076094;28;20765;-71
2023/06/29 09:59:10;;;;;;;0.80;0.80;;;36.10;38.20;;;;;;5075807;28;20419;-71
2023/06/29 10:01:40;;;;;;;1.13;1.03;;;36.70;38.50;;;;;;5075603;28;20403;-72
2023/06/29 10:04:06;;;;;;;1.70;1.30;;;37.00;37.20;;;;;;5076169;28;20400;-71
2023/06/29 10:07:08;;;;;;;2.50;1.17;;;37.20;36.40;;;;;;5075931;28;20407;-73
2023/06/29 10:09:39;;;;;;;1.27;0.77;;;36.50;36.70;;;;;;5074781;28;20463;-71
2023/06/29 10:12:09;;;;;;;1.40;1.30;;;34.70;37.40;;;;;;5075693;28;20490;-71
2023/06/29 10:14:37;;;;;;;2.13;1.10;;;33.70;41.00;;;;;;5075765;28;20458;-73
2023/06/29 10:17:09;;;;;;;4.43;1.23;;;33.70;41.60;;;;;;5075511;28;20779;-70
2023/06/29 10:19:36;;;;;;;1.20;1.20;;;33.80;40.50;;;;;;5075508;28;20988;-70
2023/06/29 10:22:11;;;;;;;1.30;1.20;;;33.40;42.20;;;;;;5075260;28;20431;-71
2023/06/29 10:24:53;;;;;;;3.33;1.10;;;33.40;40.50;;;;;;5075440;28;20412;-72
2023/06/29 10:27:21;;;;;;;3.23;1.57;;;33.50;41.10;;;;;;5075624;28;20462;-72
2023/06/29 10:29:48;;;;;;;2.20;1.50;;;33.50;41.40;;;;;;5075185;28;20436;-70
2023/06/29 10:32:31;;;;;;;1.53;1.00;;;33.40;39.60;;;;;;5075138;28;20934;-70
2023/06/29 10:35:13;;;;;;;1.33;1.23;;;33.00;41.00;;;;;;5075290;28;20562;-70
2023/06/29 10:37:42;;;;;;;2.10;1.50;;;32.20;41.20;;;;;;5075264;28;20406;-69
2023/06/29 10:40:10;;;;;;;2.80;1.37;;;31.40;42.70;;;;;;5073973;28;20444;-71
2023/06/29 10:42:39;;;;;;;1.77;1.40;;;31.00;45.60;;;;;;5074859;28;20415;-70
2023/06/29 10:45:20;;;;;;;1.90;1.70;;;31.00;47.90;;;;;;5075164;28;20774;-72
2023/06/29 10:47:57;;;;;;;2.07;1.87;;;30.80;46.30;;;;;;5075023;28;20407;-70
2023/06/29 10:50:37;;;;;;;0.90;0.73;;;31.30;44.80;;;;;;5074703;28;20512;-71
2023/06/29 10:53:05;;;;;;;1.43;1.33;;;31.60;42.80;;;;;;5073909;28;20407;-72
2023/06/29 10:55:51;;;;;;;1.40;1.30;;;31.90;45.30;;;;;;5074988;28;20466;-72
2023/06/29 10:58:22;;;;;;;2.23;1.20;;;32.20;47.80;;;;;;5074680;28;20461;-72
2023/06/29 11:00:48;;;;;;;1.77;1.40;;;32.40;43.00;;;;;;5074861;28;20411;-70
2023/06/29 11:03:15;;;;;;;1.90;1.40;;;32.50;44.10;;;;;;5074383;28;20418;-72
2023/06/29 11:05:41;;;;;;;2.00;1.30;;;32.40;42.50;;;;;;5074394;28;20449;-72
2023/06/29 11:08:07;;;;;;;2.20;1.27;;;32.40;43.20;;;;;;5074794;28;20403;-72
2023/06/29 11:10:34;;;;;;;2.17;1.63;;;32.10;45.00;;;;;;5074436;28;20196;-70
2023/06/29 11:13:00;;;;;;;1.47;1.37;;;31.40;44.60;;;;;;5074409;28;20407;-72
2023/06/29 11:15:27;;;;;;;2.33;2.23;;;31.00;46.00;;;;;;5074479;28;20448;-72
2023/06/29 11:17:53;;;;;;;2.70;1.77;;;30.80;46.90;;;;;;5074528;28;20227;-72
2023/06/29 11:20:22;;;;;;;2.73;1.50;;;30.70;46.60;;;;;;5074234;28;20434;-72
2023/06/29 11:22:48;;;;;;;1.23;1.10;;;30.70;44.50;;;;;;5074187;28;20412;-72
2023/06/29 11:25:15;;;;;;;1.07;0.97;;;30.60;46.00;;;;;;5074271;28;20416;-70
2023/06/29 11:27:45;;;;;;;1.23;1.10;;;30.20;45.40;;;;;;5074387;28;20412;-72
2023/06/29 11:30:11;;;;;;;3.03;1.30;;;30.00;47.00;;;;;;5074176;28;20442;-70
2023/06/29 11:32:37;;;;;;;1.40;1.30;;;29.70;47.10;;;;;;5073863;28;20419;-71
2023/06/29 11:35:05;;;;;;;1.73;1.33;;;29.50;48.10;;;;;;5073960;28;20448;-71
2023/06/29 11:37:31;;;;;;;5.17;2.93;;;29.30;48.30;;;;;;5073983;28;20469;-71
2023/06/29 11:39:56;;;;;;;3.23;1.93;;;29.50;46.50;;;;;;5073885;28;20428;-70
2023/06/29 11:42:25;;;;;;;5.50;2.53;;;29.80;48.30;;;;;;5073688;28;20415;-73
2023/06/29 11:45:04;;;;;;;2.50;1.43;;;30.00;45.40;;;;;;5073894;28;20196;-69
2023/06/29 11:47:30;;;;;;;1.53;1.10;;;29.90;45.90;;;;;;5073759;28;20407;-72
2023/06/29 11:49:59;;;;;;;2.57;2.37;;;29.80;48.40;;;;;;5073519;28;20458;-71
2023/06/29 11:52:32;;;;;;;1.87;1.60;;;29.90;47.40;;;;;;5073650;28;20406;-70
2023/06/29 11:55:02;;;;;;;2.90;2.47;;;30.10;46.10;;;;;;5073792;28;20451;-72
2023/06/29 11:57:32;;;;;;;2.27;2.07;;;29.90;46.00;;;;;;5073846;28;20419;-72
2023/06/29 11:59:58;;;;;;;2.20;1.77;;;29.90;45.20;;;;;;5073549;28;20432;-70
2023/06/29 12:02:24;;;;;;;3.53;1.93;;;29.90;46.30;;;;;;5073390;28;20399;-70
2023/06/29 12:05:03;;;;;;;3.07;2.20;;;30.00;45.60;;;;;;5073685;28;20173;-72
2023/06/29 12:07:45;;;;;;;3.33;2.33;;;30.10;46.70;;;;;;5073694;28;20183;-72
2023/06/29 12:10:20;;;;;;;2.13;1.83;;;30.30;46.00;;;;;;5073871;28;20428;-72
2023/06/29 12:12:49;;;;;;;1.87;1.60;;;30.30;44.60;;;;;;5073297;28;20828;-72
2023/06/29 12:15:20;;;;;;;3.23;1.90;;;30.30;46.90;;;;;;5073412;28;20451;-71
2023/06/29 12:17:48;;;;;;;2.47;1.90;;;30.40;47.00;;;;;;5073520;28;20416;-70
2023/06/29 12:20:18;;;;;;;3.97;2.50;;;30.30;47.30;;;;;;5073956;28;20783;-70
2023/06/29 12:22:45;;;;;;;2.30;1.60;;;29.80;46.70;;;;;;5073235;28;20505;-72
2023/06/29 12:25:15;;;;;;;2.60;1.70;;;29.60;47.70;;;;;;5073351;28;20410;-71
2023/06/29 12:27:43;;;;;;;2.87;1.47;;;29.30;48.20;;;;;;5073532;28;20473;-70
2023/06/29 12:30:15;;;;;;;3.23;2.40;;;29.20;47.10;;;;;;5073327;28;20427;-72
2023/06/29 12:32:51;;;;;;;3.40;2.00;;;29.20;48.10;;;;;;5073127;28;20415;-70
2023/06/29 12:35:18;;;;;;;3.07;2.20;;;29.40;48.00;;;;;;5073390;28;20450;-71
2023/06/29 12:37:44;;;;;;;1.97;1.80;;;29.40;46.30;;;;;;5073299;28;20495;-71
2023/06/29 12:40:10;;;;;;;2.63;2.43;;;29.50;48.20;;;;;;5073111;28;20439;-72
2023/06/29 12:42:37;;;;;;;3.70;2.53;;;29.60;48.40;;;;;;5073185;28;20462;-70
2023/06/29 12:45:04;;;;;;;5.80;2.60;;;29.60;47.60;;;;;;5073396;28;20415;-70
2023/06/29 12:47:30;;;;;;;2.83;2.23;;;29.70;49.90;;;;;;5072991;28;20430;-70
2023/06/29 12:49:57;;;;;;;1.63;1.53;;;29.70;46.60;;;;;;5072938;28;20472;-71